Time;durP1;ratioP1;P1;durP2;ratioP2;P2;SDS_P1;SDS_P2;PMS_P1;PMS_P2;Temp;Humidity;BMP_temperature;BMP_pressure;BME280_temperature;BME280_humidity;BME280_pressure;Samples;Min_cycle;Max_cycle;Signal;HPM_P1;HPM_P2
2023/10/26 00:00:38;;;;;;;31.30;6.35;;;;;;;;;;4388563;32;318899;-85
2023/10/26 00:03:05;;;;;;;33.70;6.30;;;;;;;;;;4371206;32;318233;-87
2023/10/26 00:05:32;;;;;;;24.98;5.45;;;;;;;;;;4388070;32;318311;-86
2023/10/26 00:07:58;;;;;;;24.58;5.70;;;;;;;;;;4379631;32;319089;-86
2023/10/26 00:10:25;;;;;;;35.30;6.07;;;;;;;;;;4390653;32;318673;-87
2023/10/26 00:12:53;;;;;;;16.63;6.17;;;;;;;;;;4373701;32;318140;-88
2023/10/26 00:15:20;;;;;;;12.48;4.97;;;;;;;;;;4389416;32;318571;-89
2023/10/26 00:17:47;;;;;;;27.20;6.47;;;;;;;;;;4380699;32;317851;-88
2023/10/26 00:20:13;;;;;;;32.13;7.93;;;;;;;;;;4391340;32;318343;-88
2023/10/26 00:22:40;;;;;;;27.15;5.93;;;;;;;;;;4390560;32;318275;-89
2023/10/26 00:25:07;;;;;;;32.72;7.03;;;;;;;;;;4371240;32;372189;-88
2023/10/26 00:27:40;;;;;;;26.90;6.03;;;;;;;;;;4377888;32;318252;-88
2023/10/26 00:30:10;;;;;;;29.83;6.53;;;;;;;;;;4355998;32;318515;-88
2023/10/26 00:32:37;;;;;;;26.02;6.85;;;;;;;;;;4367074;32;317425;-88
2023/10/26 00:35:04;;;;;;;30.48;6.75;;;;;;;;;;4360156;32;318864;-86
2023/10/26 00:37:31;;;;;;;25.42;6.82;;;;;;;;;;4389639;32;318555;-86
2023/10/26 00:39:58;;;;;;;22.07;6.03;;;;;;;;;;4378585;32;351666;-86
2023/10/26 00:42:25;;;;;;;32.97;7.62;;;;;;;;;;4383770;32;319049;-86
2023/10/26 00:44:53;;;;;;;28.50;5.85;;;;;;;;;;4371792;32;318376;-88
2023/10/26 00:47:21;;;;;;;27.17;5.37;;;;;;;;;;4370637;32;318576;-85
2023/10/26 00:49:48;;;;;;;27.15;5.20;;;;;;;;;;4390050;32;318396;-86
2023/10/26 00:52:15;;;;;;;16.42;4.30;;;;;;;;;;4379410;32;318296;-88
2023/10/26 00:54:43;;;;;;;26.20;5.53;;;;;;;;;;4390830;32;317493;-87
2023/10/26 00:57:10;;;;;;;25.73;4.75;;;;;;;;;;4373253;32;318216;-89
2023/10/26 00:59:38;;;;;;;17.62;4.80;;;;;;;;;;4390567;32;318177;-89
2023/10/26 01:02:05;;;;;;;17.23;4.50;;;;;;;;;;4379780;32;317512;-89
2023/10/26 01:04:33;;;;;;;28.85;4.95;;;;;;;;;;4389414;32;319017;-87
2023/10/26 01:07:00;;;;;;;24.50;4.65;;;;;;;;;;4373669;32;318012;-88
2023/10/26 01:09:27;;;;;;;27.20;4.57;;;;;;;;;;4389294;32;318322;-88
2023/10/26 01:11:54;;;;;;;34.92;4.90;;;;;;;;;;4377409;32;344766;-88
2023/10/26 01:14:21;;;;;;;15.93;4.12;;;;;;;;;;4375923;32;318104;-89
2023/10/26 01:16:48;;;;;;;33.65;4.55;;;;;;;;;;4389598;32;318612;-86
2023/10/26 01:19:14;;;;;;;22.50;4.05;;;;;;;;;;4374538;32;318926;-87
2023/10/26 01:21:53;;;;;;;22.95;4.10;;;;;;;;;;4390601;32;318550;-86
2023/10/26 01:24:20;;;;;;;18.55;3.90;;;;;;;;;;4376625;32;416836;-86
2023/10/26 01:26:47;;;;;;;23.48;4.22;;;;;;;;;;4389027;32;317427;-88
2023/10/26 01:29:14;;;;;;;23.15;4.35;;;;;;;;;;4372604;32;317822;-86
2023/10/26 01:31:41;;;;;;;20.00;3.95;;;;;;;;;;4389949;32;317911;-86
2023/10/26 01:34:07;;;;;;;19.35;3.47;;;;;;;;;;4380024;32;318206;-88
2023/10/26 01:36:34;;;;;;;16.37;4.10;;;;;;;;;;4387487;32;318700;-88
2023/10/26 01:39:02;;;;;;;22.65;4.15;;;;;;;;;;4372668;32;318275;-87
2023/10/26 01:41:32;;;;;;;23.92;5.15;;;;;;;;;;4386303;32;318498;-87
2023/10/26 01:43:58;;;;;;;15.48;5.28;;;;;;;;;;4371990;32;329649;-87
2023/10/26 01:46:25;;;;;;;20.05;4.55;;;;;;;;;;4389757;32;318551;-88
2023/10/26 01:48:52;;;;;;;22.40;4.93;;;;;;;;;;4379927;32;318260;-88
2023/10/26 01:51:19;;;;;;;18.30;4.68;;;;;;;;;;4383752;32;318416;-87
2023/10/26 01:53:45;;;;;;;13.32;4.12;;;;;;;;;;4390364;32;327376;-86
2023/10/26 01:56:12;;;;;;;31.95;5.45;;;;;;;;;;4379973;32;318164;-86
2023/10/26 01:58:39;;;;;;;29.63;6.45;;;;;;;;;;4390187;32;317623;-86
2023/10/26 02:01:06;;;;;;;25.20;5.90;;;;;;;;;;4372887;32;318430;-87
2023/10/26 02:03:33;;;;;;;22.92;5.37;;;;;;;;;;4389530;32;318105;-86
2023/10/26 02:05:59;;;;;;;24.08;5.82;;;;;;;;;;4380395;32;318169;-87
2023/10/26 02:08:26;;;;;;;18.92;4.93;;;;;;;;;;4388347;32;317694;-88
2023/10/26 02:10:53;;;;;;;18.02;4.50;;;;;;;;;;4379349;32;318553;-87
2023/10/26 02:13:21;;;;;;;24.85;4.53;;;;;;;;;;4385557;32;318314;-87
2023/10/26 02:15:48;;;;;;;23.23;4.72;;;;;;;;;;4390511;32;318228;-87
2023/10/26 02:18:15;;;;;;;21.95;5.55;;;;;;;;;;4378979;32;318315;-87
2023/10/26 02:20:41;;;;;;;19.70;4.53;;;;;;;;;;4389628;32;318201;-87
2023/10/26 02:23:09;;;;;;;22.83;4.62;;;;;;;;;;4374856;32;318392;-87
2023/10/26 02:25:35;;;;;;;27.15;5.47;;;;;;;;;;4394948;32;317666;-86
2023/10/26 02:28:02;;;;;;;25.00;4.95;;;;;;;;;;4399588;32;317396;-89
2023/10/26 02:30:30;;;;;;;18.15;4.45;;;;;;;;;;4408159;32;317928;-87
2023/10/26 02:32:57;;;;;;;20.17;4.07;;;;;;;;;;4390787;32;318339;-88
2023/10/26 02:35:24;;;;;;;21.92;4.65;;;;;;;;;;4406923;32;316962;-89
2023/10/26 02:37:50;;;;;;;22.17;4.97;;;;;;;;;;4383378;32;318644;-86
2023/10/26 02:40:17;;;;;;;14.18;3.15;;;;;;;;;;4376797;32;419561;-86
2023/10/26 02:42:44;;;;;;;19.98;4.18;;;;;;;;;;4376259;32;318628;-86
2023/10/26 02:45:11;;;;;;;17.08;3.90;;;;;;;;;;4370918;32;346946;-89
2023/10/26 02:47:39;;;;;;;12.20;3.65;;;;;;;;;;4389172;32;317744;-85
2023/10/26 02:50:07;;;;;;;16.10;3.83;;;;;;;;;;4378000;32;317914;-86
2023/10/26 02:52:33;;;;;;;19.20;4.05;;;;;;;;;;4389025;32;318064;-86
2023/10/26 02:55:00;;;;;;;24.37;4.75;;;;;;;;;;4371366;32;318652;-85
2023/10/26 02:57:27;;;;;;;15.20;4.55;;;;;;;;;;4387954;32;318138;-87
2023/10/26 02:59:53;;;;;;;22.20;4.68;;;;;;;;;;4378059;32;348017;-86
2023/10/26 03:02:20;;;;;;;23.35;4.65;;;;;;;;;;4388821;32;317556;-87
2023/10/26 03:04:48;;;;;;;23.12;5.70;;;;;;;;;;4387720;32;318284;-87
2023/10/26 03:07:22;;;;;;;22.10;5.82;;;;;;;;;;4370285;32;318939;-85
2023/10/26 03:09:49;;;;;;;28.23;4.85;;;;;;;;;;4387458;32;318070;-85
2023/10/26 03:12:15;;;;;;;23.80;5.62;;;;;;;;;;4379297;32;318178;-88
2023/10/26 03:14:42;;;;;;;15.07;4.10;;;;;;;;;;4389872;32;318257;-86
2023/10/26 03:17:09;;;;;;;24.92;5.53;;;;;;;;;;4371808;32;317591;-86
2023/10/26 03:19:36;;;;;;;24.00;5.60;;;;;;;;;;4376120;32;318281;-86
2023/10/26 03:22:04;;;;;;;22.10;5.70;;;;;;;;;;4377975;32;318152;-87
2023/10/26 03:24:31;;;;;;;21.60;5.15;;;;;;;;;;4390067;32;318323;-88
2023/10/26 03:26:58;;;;;;;20.00;5.03;;;;;;;;;;4373749;32;318743;-88
2023/10/26 03:29:25;;;;;;;24.08;5.28;;;;;;;;;;4385048;32;318633;-88
2023/10/26 03:31:52;;;;;;;25.73;4.97;;;;;;;;;;4369113;32;335965;-88
2023/10/26 03:34:19;;;;;;;33.88;7.35;;;;;;;;;;4388963;32;318276;-86
2023/10/26 03:36:46;;;;;;;19.85;5.30;;;;;;;;;;4380574;32;318494;-87
2023/10/26 03:39:14;;;;;;;16.35;5.03;;;;;;;;;;4357864;32;318131;-86
2023/10/26 03:41:41;;;;;;;19.98;5.85;;;;;;;;;;4376000;32;318060;-85
2023/10/26 03:44:08;;;;;;;24.20;6.43;;;;;;;;;;4376502;32;318245;-86
2023/10/26 03:46:35;;;;;;;31.95;12.40;;;;;;;;;;4394420;32;318455;-86
2023/10/26 03:49:01;;;;;;;26.12;8.43;;;;;;;;;;4377123;32;319207;-85
2023/10/26 03:51:28;;;;;;;29.37;7.28;;;;;;;;;;4390648;32;317736;-86
2023/10/26 03:53:55;;;;;;;19.48;5.40;;;;;;;;;;4381629;32;372230;-87
2023/10/26 03:56:23;;;;;;;19.17;6.55;;;;;;;;;;4392278;32;318472;-86
2023/10/26 03:58:49;;;;;;;24.60;5.12;;;;;;;;;;4391344;32;318239;-88
2023/10/26 04:01:16;;;;;;;18.12;5.85;;;;;;;;;;4370024;32;419172;-87
2023/10/26 04:03:43;;;;;;;18.85;4.40;;;;;;;;;;4375416;32;328676;-87
2023/10/26 04:06:09;;;;;;;16.60;4.32;;;;;;;;;;4366956;32;318429;-86
2023/10/26 04:08:37;;;;;;;21.08;5.10;;;;;;;;;;4363124;32;317565;-86
2023/10/26 04:11:04;;;;;;;24.87;5.45;;;;;;;;;;4358743;32;318120;-86
2023/10/26 04:13:32;;;;;;;27.30;5.35;;;;;;;;;;4375660;32;318196;-87
2023/10/26 04:16:00;;;;;;;24.73;5.25;;;;;;;;;;4367130;32;318392;-86
2023/10/26 04:18:27;;;;;;;21.27;5.03;;;;;;;;;;4376686;32;318219;-86
2023/10/26 04:20:54;;;;;;;22.30;4.78;;;;;;;;;;4358607;32;317931;-87
2023/10/26 04:23:21;;;;;;;20.27;4.85;;;;;;;;;;4372695;32;318458;-86
2023/10/26 04:25:48;;;;;;;19.58;4.40;;;;;;;;;;4378426;32;317580;-85
2023/10/26 04:28:15;;;;;;;21.83;6.47;;;;;;;;;;4379692;32;324789;-87
2023/10/26 04:30:44;;;;;;;22.45;5.75;;;;;;;;;;4391317;32;317602;-86
2023/10/26 04:33:10;;;;;;;15.68;5.62;;;;;;;;;;4372134;32;318331;-86
2023/10/26 04:35:41;;;;;;;29.20;7.47;;;;;;;;;;4389852;32;318906;-87
2023/10/26 04:38:08;;;;;;;18.70;6.10;;;;;;;;;;4367978;32;318657;-86
2023/10/26 04:40:35;;;;;;;24.77;7.65;;;;;;;;;;4377859;32;318361;-86
2023/10/26 04:43:02;;;;;;;12.27;5.55;;;;;;;;;;4373206;32;318505;-88
2023/10/26 04:45:28;;;;;;;26.65;6.50;;;;;;;;;;4390433;32;317320;-86
2023/10/26 04:47:56;;;;;;;16.12;4.55;;;;;;;;;;4380059;32;318282;-89
2023/10/26 04:50:23;;;;;;;21.95;5.78;;;;;;;;;;4390429;32;318283;-86
2023/10/26 04:52:50;;;;;;;26.12;6.15;;;;;;;;;;4377007;32;318183;-89
2023/10/26 04:55:19;;;;;;;14.45;4.03;;;;;;;;;;4369414;32;417454;-90
2023/10/26 04:57:46;;;;;;;13.57;4.35;;;;;;;;;;4389394;32;317695;-89
2023/10/26 05:00:13;;;;;;;13.93;5.05;;;;;;;;;;4381039;32;318103;-87
2023/10/26 05:02:41;;;;;;;30.20;4.93;;;;;;;;;;4388867;32;348201;-89
2023/10/26 05:05:09;;;;;;;13.80;4.93;;;;;;;;;;4373439;32;318073;-88
2023/10/26 05:07:36;;;;;;;13.38;5.45;;;;;;;;;;4388712;32;336362;-89
2023/10/26 05:10:06;;;;;;;15.35;4.97;;;;;;;;;;4366582;32;316969;-88
2023/10/26 05:12:33;;;;;;;14.63;5.95;;;;;;;;;;4389993;32;318935;-87
2023/10/26 05:15:00;;;;;;;18.80;5.03;;;;;;;;;;4372726;32;318113;-88
2023/10/26 05:17:26;;;;;;;19.50;6.05;;;;;;;;;;4389201;32;318354;-89
2023/10/26 05:19:53;;;;;;;22.15;5.32;;;;;;;;;;4391112;32;317166;-82
2023/10/26 05:22:21;;;;;;;30.55;6.78;;;;;;;;;;4377839;32;418868;-80
2023/10/26 05:24:48;;;;;;;30.15;5.97;;;;;;;;;;4391528;32;318245;-88
2023/10/26 05:27:15;;;;;;;16.27;6.03;;;;;;;;;;4374321;32;317913;-88
2023/10/26 05:29:42;;;;;;;17.45;6.57;;;;;;;;;;4390345;32;317748;-88
2023/10/26 05:32:09;;;;;;;21.87;7.07;;;;;;;;;;4379679;32;332057;-86
2023/10/26 05:34:36;;;;;;;24.27;8.13;;;;;;;;;;4390594;32;317992;-87
2023/10/26 05:37:02;;;;;;;29.35;7.25;;;;;;;;;;4370925;32;333247;-93
2023/10/26 05:39:32;;;;;;;28.70;7.60;;;;;;;;;;4388738;32;344404;-95
2023/10/26 05:41:59;;;;;;;33.38;10.10;;;;;;;;;;4378318;32;341321;-94
2023/10/26 05:44:27;;;;;;;36.60;11.77;;;;;;;;;;4389279;32;319302;-89
2023/10/26 05:46:54;;;;;;;23.70;10.15;;;;;;;;;;4377291;32;317921;-88
2023/10/26 05:49:21;;;;;;;30.17;9.55;;;;;;;;;;4386385;32;325280;-88
2023/10/26 05:51:48;;;;;;;33.28;15.88;;;;;;;;;;4390315;32;323327;-88
2023/10/26 05:54:15;;;;;;;31.35;11.52;;;;;;;;;;4376145;32;351167;-91
2023/10/26 05:56:43;;;;;;;31.52;13.25;;;;;;;;;;4390911;32;319353;-91
2023/10/26 05:59:10;;;;;;;35.97;14.10;;;;;;;;;;4375073;32;319015;-90
2023/10/26 06:01:37;;;;;;;33.00;13.68;;;;;;;;;;4391251;32;318989;-87
2023/10/26 06:04:03;;;;;;;21.08;10.68;;;;;;;;;;4378231;32;319363;-89
2023/10/26 06:06:30;;;;;;;28.73;10.60;;;;;;;;;;4390113;32;330077;-89
2023/10/26 06:08:59;;;;;;;22.25;8.38;;;;;;;;;;4376498;32;319376;-86
2023/10/26 06:11:26;;;;;;;33.22;13.18;;;;;;;;;;4390630;32;318452;-87
2023/10/26 06:13:54;;;;;;;36.70;14.57;;;;;;;;;;4389363;32;319446;-86
2023/10/26 06:16:21;;;;;;;38.60;14.70;;;;;;;;;;4366400;32;330031;-88
2023/10/26 06:18:48;;;;;;;19.52;11.10;;;;;;;;;;4390607;32;319368;-88
2023/10/26 06:21:14;;;;;;;25.37;10.25;;;;;;;;;;4372479;32;319136;-88
2023/10/26 06:23:44;;;;;;;22.17;10.20;;;;;;;;;;4392064;32;358787;-84
2023/10/26 06:26:11;;;;;;;24.90;11.90;;;;;;;;;;4377987;32;319813;-83
2023/10/26 06:28:37;;;;;;;25.50;10.13;;;;;;;;;;4376027;32;319246;-86
2023/10/26 06:31:15;;;;;;;31.10;13.20;;;;;;;;;;4365515;32;325876;-82
2023/10/26 06:33:42;;;;;;;27.15;10.68;;;;;;;;;;4390501;32;319188;-86
2023/10/26 06:36:09;;;;;;;35.10;15.15;;;;;;;;;;4381252;32;319542;-83
2023/10/26 06:38:37;;;;;;;28.87;14.48;;;;;;;;;;4388443;32;359445;-88
2023/10/26 06:41:05;;;;;;;24.70;12.82;;;;;;;;;;4376523;32;326446;-86
2023/10/26 06:43:32;;;;;;;38.78;16.33;;;;;;;;;;4380650;32;319240;-87
2023/10/26 06:45:59;;;;;;;25.58;11.48;;;;;;;;;;4386558;32;319644;-86
2023/10/26 06:48:27;;;;;;;34.10;13.77;;;;;;;;;;4406795;32;318203;-86
2023/10/26 06:50:58;;;;;;;34.25;12.30;;;;;;;;;;4405733;32;317885;-87
2023/10/26 06:53:25;;;;;;;37.28;15.57;;;;;;;;;;4391931;32;417089;-88
2023/10/26 06:55:52;;;;;;;35.47;14.90;;;;;;;;;;4403107;32;347818;-87
2023/10/26 06:58:19;;;;;;;28.45;13.18;;;;;;;;;;4381493;32;419230;-88
2023/10/26 07:00:46;;;;;;;25.15;11.35;;;;;;;;;;4392579;32;318137;-88
2023/10/26 07:03:13;;;;;;;19.62;10.68;;;;;;;;;;4374099;32;319524;-88
2023/10/26 07:05:41;;;;;;;25.62;9.73;;;;;;;;;;4389561;32;319072;-87
2023/10/26 07:08:08;;;;;;;17.62;7.93;;;;;;;;;;4379660;32;318340;-90
2023/10/26 07:10:35;;;;;;;21.60;9.20;;;;;;;;;;4389030;32;318177;-89
2023/10/26 07:13:02;;;;;;;19.10;8.70;;;;;;;;;;4371599;32;318643;-89
2023/10/26 07:15:31;;;;;;;24.80;8.82;;;;;;;;;;4388086;32;316923;-87
2023/10/26 07:17:58;;;;;;;20.40;9.70;;;;;;;;;;4382640;32;318558;-90
2023/10/26 07:20:25;;;;;;;27.90;9.68;;;;;;;;;;4392019;32;317993;-86
2023/10/26 07:22:53;;;;;;;26.20;10.02;;;;;;;;;;4384306;32;317937;-87
2023/10/26 07:25:20;;;;;;;24.37;9.48;;;;;;;;;;4371468;32;418699;-88
2023/10/26 07:27:46;;;;;;;18.50;9.38;;;;;;;;;;4389923;32;316653;-90
2023/10/26 07:30:13;;;;;;;17.85;8.57;;;;;;;;;;4382491;32;318542;-87
2023/10/26 07:32:40;;;;;;;27.70;9.23;;;;;;;;;;4395241;32;317666;-90
2023/10/26 07:35:07;;;;;;;20.92;8.70;;;;;;;;;;4376735;32;318161;-87
2023/10/26 07:37:34;;;;;;;25.42;9.50;;;;;;;;;;4393310;32;317813;-90
2023/10/26 07:40:03;;;;;;;24.77;10.82;;;;;;;;;;4372661;32;317826;-88
2023/10/26 07:42:30;;;;;;;24.55;10.30;;;;;;;;;;4374656;32;319033;-88
2023/10/26 07:44:57;;;;;;;25.92;8.88;;;;;;;;;;4361420;32;318439;-91
2023/10/26 07:47:24;;;;;;;15.57;8.20;;;;;;;;;;4375583;32;317615;-88
2023/10/26 07:49:51;;;;;;;31.73;9.63;;;;;;;;;;4378076;32;317823;-87
2023/10/26 07:52:18;;;;;;;15.98;7.65;;;;;;;;;;4364614;32;318826;-88
2023/10/26 07:54:45;;;;;;;18.27;9.40;;;;;;;;;;4361714;32;317878;-89
2023/10/26 07:57:13;;;;;;;15.63;8.23;;;;;;;;;;4373890;32;318312;-87
2023/10/26 07:59:41;;;;;;;24.55;8.70;;;;;;;;;;4371576;32;317717;-87
2023/10/26 08:02:08;;;;;;;25.30;8.20;;;;;;;;;;4380108;32;318233;-90
2023/10/26 08:04:34;;;;;;;24.95;7.72;;;;;;;;;;4389176;32;317451;-89
2023/10/26 08:07:01;;;;;;;24.10;7.40;;;;;;;;;;4376478;32;318183;-88
2023/10/26 08:09:32;;;;;;;20.45;7.50;;;;;;;;;;4391971;32;317594;-88
2023/10/26 08:12:02;;;;;;;25.25;6.47;;;;;;;;;;4375507;32;318379;-88
2023/10/26 08:14:31;;;;;;;15.38;5.75;;;;;;;;;;4390326;32;343638;-87
2023/10/26 08:16:57;;;;;;;19.73;5.62;;;;;;;;;;4375665;32;318433;-88
2023/10/26 08:19:25;;;;;;;16.83;5.78;;;;;;;;;;4392097;32;317884;-88
2023/10/26 08:21:52;;;;;;;25.10;6.32;;;;;;;;;;4378932;32;317774;-89
2023/10/26 08:24:19;;;;;;;19.37;4.85;;;;;;;;;;4383082;32;317625;-89
2023/10/26 08:26:47;;;;;;;19.02;4.78;;;;;;;;;;4390871;32;316863;-88
2023/10/26 08:29:13;;;;;;;18.20;6.30;;;;;;;;;;4374505;32;318379;-90
2023/10/26 08:31:44;;;;;;;26.52;6.60;;;;;;;;;;4394813;32;317677;-90
2023/10/26 08:34:10;;;;;;;14.80;5.37;;;;;;;;;;4380793;32;318437;-89
2023/10/26 08:36:37;;;;;;;18.12;4.87;;;;;;;;;;4391727;32;318261;-91
2023/10/26 08:39:06;;;;;;;16.40;6.15;;;;;;;;;;4378155;32;317943;-86
2023/10/26 08:41:34;;;;;;;18.58;4.53;;;;;;;;;;4390121;32;318450;-85
2023/10/26 08:44:01;;;;;;;17.40;4.25;;;;;;;;;;4380710;32;317688;-87
2023/10/26 08:46:29;;;;;;;15.98;5.93;;;;;;;;;;4391755;32;318265;-89
2023/10/26 08:48:58;;;;;;;13.00;4.45;;;;;;;;;;4379514;32;318448;-94
2023/10/26 08:51:27;;;;;;;19.23;4.78;;;;;;;;;;4388239;32;316936;-91
2023/10/26 08:53:54;;;;;;;16.65;3.95;;;;;;;;;;4383210;32;335401;-88
2023/10/26 08:56:23;;;;;;;18.35;4.53;;;;;;;;;;4378479;32;418569;-90
2023/10/26 08:58:55;;;;;;;10.23;3.20;;;;;;;;;;4389106;32;317459;-89
2023/10/26 09:01:21;;;;;;;28.10;5.82;;;;;;;;;;4373513;32;417970;-87
2023/10/26 09:03:48;;;;;;;18.55;5.32;;;;;;;;;;4391124;32;318216;-88
2023/10/26 09:06:16;;;;;;;18.65;6.57;;;;;;;;;;4380591;32;318141;-88
2023/10/26 09:08:43;;;;;;;23.27;5.12;;;;;;;;;;4391362;32;318365;-85
2023/10/26 09:11:21;;;;;;;18.48;5.45;;;;;;;;;;4372731;32;317827;-89
2023/10/26 09:13:48;;;;;;;18.02;4.95;;;;;;;;;;4390394;32;318296;-87
2023/10/26 09:16:15;;;;;;;20.85;4.43;;;;;;;;;;4378322;32;318345;-89
2023/10/26 09:18:50;;;;;;;25.02;4.80;;;;;;;;;;4390887;32;317841;-90
2023/10/26 09:21:18;;;;;;;22.02;5.12;;;;;;;;;;4373021;32;317259;-87
2023/10/26 09:23:46;;;;;;;19.83;4.40;;;;;;;;;;4390350;32;317544;-87
2023/10/26 09:26:13;;;;;;;26.00;4.75;;;;;;;;;;4378773;32;318110;-89
2023/10/26 09:28:50;;;;;;;14.73;3.90;;;;;;;;;;4389629;32;317998;-87
2023/10/26 09:31:17;;;;;;;11.77;4.40;;;;;;;;;;4374004;32;317875;-89
2023/10/26 09:33:44;;;;;;;16.92;3.80;;;;;;;;;;4390581;32;316901;-88
2023/10/26 09:36:12;;;;;;;14.95;4.05;;;;;;;;;;4378917;32;318760;-88
2023/10/26 09:38:40;;;;;;;19.73;4.72;;;;;;;;;;4381680;32;317954;-87
2023/10/26 09:41:10;;;;;;;11.45;4.05;;;;;;;;;;4371926;32;317544;-90
2023/10/26 09:43:37;;;;;;;19.50;4.70;;;;;;;;;;4390066;32;317722;-88
2023/10/26 09:46:05;;;;;;;19.70;4.62;;;;;;;;;;4380353;32;318324;-87
2023/10/26 09:48:32;;;;;;;24.02;4.70;;;;;;;;;;4382273;32;317868;-88
2023/10/26 09:51:01;;;;;;;14.75;4.00;;;;;;;;;;4373910;32;318239;-91
2023/10/26 09:53:32;;;;;;;16.77;5.82;;;;;;;;;;4392038;32;318290;-86
2023/10/26 09:56:02;;;;;;;16.58;4.43;;;;;;;;;;4378971;32;318334;-87
2023/10/26 09:58:32;;;;;;;31.05;4.93;;;;;;;;;;4371752;32;317462;-88
2023/10/26 10:00:58;;;;;;;20.33;4.22;;;;;;;;;;4369967;32;318444;-88
2023/10/26 10:03:26;;;;;;;15.80;4.30;;;;;;;;;;4390115;32;317901;-89
2023/10/26 10:05:53;;;;;;;19.33;4.35;;;;;;;;;;4388301;32;317005;-87
2023/10/26 10:09:07;;;;;;;16.55;5.00;;;;;;;;;;4377747;32;417303;-87
2023/10/26 10:11:35;;;;;;;22.80;5.20;;;;;;;;;;4300837;32;420402;-87
2023/10/26 10:14:02;;;;;;;17.45;4.12;;;;;;;;;;4301954;33;317611;-87
2023/10/26 10:16:52;;;;;;;11.07;3.62;;;;;;;;;;4348000;32;317814;-86
2023/10/26 10:19:20;;;;;;;20.27;4.40;;;;;;;;;;4377172;32;318701;-87
2023/10/26 10:21:48;;;;;;;18.73;4.20;;;;;;;;;;4390550;32;318369;-87
2023/10/26 10:24:53;;;;;;;21.20;5.57;;;;;;;;;;4380562;32;318429;-87
2023/10/26 10:27:21;;;;;;;18.25;4.00;;;;;;;;;;4376403;32;323815;-87
2023/10/26 10:29:48;;;;;;;21.27;4.60;;;;;;;;;;4390566;32;318589;-86
2023/10/26 10:32:50;;;;;;;17.58;4.05;;;;;;;;;;4379064;32;318541;-85
2023/10/26 10:35:35;;;;;;;15.50;4.37;;;;;;;;;;4358719;32;318262;-86
2023/10/26 10:38:20;;;;;;;20.75;4.60;;;;;;;;;;4363347;32;318586;-87
2023/10/26 10:41:08;;;;;;;16.92;3.55;;;;;;;;;;4372773;32;317512;-87
2023/10/26 10:43:40;;;;;;;20.73;3.97;;;;;;;;;;4374813;32;418167;-88
2023/10/26 10:46:13;;;;;;;14.38;4.20;;;;;;;;;;4378574;32;317610;-89
2023/10/26 10:49:00;;;;;;;11.88;4.15;;;;;;;;;;4390297;32;317891;-88
2023/10/26 10:51:32;;;;;;;11.15;3.53;;;;;;;;;;4376310;32;417916;-86
2023/10/26 10:53:59;;;;;;;17.33;3.60;;;;;;;;;;4379557;32;333848;-88
2023/10/26 10:56:26;;;;;;;13.02;3.85;;;;;;;;;;4388472;32;317634;-88
2023/10/26 10:58:56;;;;;;;14.38;4.05;;;;;;;;;;4381220;32;318234;-88
2023/10/26 11:01:23;;;;;;;21.50;3.78;;;;;;;;;;4378241;32;417991;-86
2023/10/26 11:03:51;;;;;;;14.85;4.25;;;;;;;;;;4390182;32;317753;-89
2023/10/26 11:06:19;;;;;;;16.62;4.05;;;;;;;;;;4388140;32;328056;-87
2023/10/26 11:08:46;;;;;;;14.30;4.05;;;;;;;;;;4399144;32;318140;-85
2023/10/26 11:11:26;;;;;;;16.73;3.65;;;;;;;;;;4380731;32;318664;-87
2023/10/26 11:14:08;;;;;;;12.55;3.12;;;;;;;;;;4394930;32;316605;-92
2023/10/26 11:16:37;;;;;;;13.93;4.55;;;;;;;;;;4380714;32;418213;-89
2023/10/26 11:19:04;;;;;;;21.83;5.32;;;;;;;;;;4372256;32;318061;-90
2023/10/26 11:21:31;;;;;;;20.70;4.82;;;;;;;;;;4389427;32;318285;-91
2023/10/26 11:23:58;;;;;;;11.88;4.18;;;;;;;;;;4379272;32;318313;-87
2023/10/26 11:26:25;;;;;;;18.17;4.93;;;;;;;;;;4387642;32;317402;-90
2023/10/26 11:28:52;;;;;;;13.07;4.95;;;;;;;;;;4387806;32;318784;-86
2023/10/26 11:31:42;;;;;;;8.25;2.58;;;;;;;;;;4372928;32;318940;-87
2023/10/26 11:34:09;;;;;;;16.98;2.83;;;;;;;;;;4379065;32;316720;-86
2023/10/26 11:36:36;;;;;;;18.67;2.75;;;;;;;;;;4388527;32;317780;-87
2023/10/26 11:39:04;;;;;;;8.25;2.30;;;;;;;;;;4374703;32;317652;-87
2023/10/26 11:41:30;;;;;;;7.80;3.37;;;;;;;;;;4389762;32;316064;-86
2023/10/26 11:43:58;;;;;;;17.73;3.92;;;;;;;;;;4379574;32;317261;-87
2023/10/26 11:46:32;;;;;;;18.83;3.67;;;;;;;;;;4388921;32;317714;-87
2023/10/26 11:49:01;;;;;;;10.55;2.33;;;;;;;;;;4374505;32;318285;-86
2023/10/26 11:51:29;;;;;;;9.68;2.50;;;;;;;;;;4381349;32;330125;-88
2023/10/26 11:53:56;;;;;;;9.48;2.33;;;;;;;;;;4378895;32;317288;-87
2023/10/26 11:56:23;;;;;;;6.18;1.95;;;;;;;;;;4381762;32;317084;-90
2023/10/26 11:58:49;;;;;;;9.82;2.28;;;;;;;;;;4388644;32;336283;-86
2023/10/26 12:01:16;;;;;;;7.05;2.10;;;;;;;;;;4373560;32;317361;-86
2023/10/26 12:03:47;;;;;;;11.95;2.60;;;;;;;;;;4390036;32;317090;-89
2023/10/26 12:06:15;;;;;;;10.30;2.42;;;;;;;;;;4380732;32;318191;-88
2023/10/26 12:08:42;;;;;;;11.10;2.53;;;;;;;;;;4389806;32;317717;-86
2023/10/26 12:11:09;;;;;;;8.90;2.03;;;;;;;;;;4375708;32;332198;-88
2023/10/26 12:13:37;;;;;;;13.43;2.60;;;;;;;;;;4389434;32;316715;-88
2023/10/26 12:16:05;;;;;;;15.25;2.95;;;;;;;;;;4367246;32;319004;-87
2023/10/26 12:18:34;;;;;;;9.65;3.15;;;;;;;;;;4377034;32;318350;-88
2023/10/26 12:21:01;;;;;;;12.55;3.92;;;;;;;;;;4359010;32;316932;-86
2023/10/26 12:23:29;;;;;;;14.50;5.75;;;;;;;;;;4375791;32;318281;-90
2023/10/26 12:25:56;;;;;;;10.52;2.83;;;;;;;;;;4365599;32;317849;-90
2023/10/26 12:28:23;;;;;;;10.02;2.10;;;;;;;;;;4376101;32;316874;-87
2023/10/26 12:30:50;;;;;;;9.57;2.28;;;;;;;;;;4377642;32;318736;-87
2023/10/26 12:33:17;;;;;;;7.37;2.05;;;;;;;;;;4359876;32;316716;-90
2023/10/26 12:35:44;;;;;;;7.60;2.67;;;;;;;;;;4378235;32;317357;-92
2023/10/26 12:38:10;;;;;;;6.20;1.73;;;;;;;;;;4381485;32;317501;-88
2023/10/26 12:40:39;;;;;;;4.90;1.83;;;;;;;;;;4393157;32;317524;-89
2023/10/26 12:43:05;;;;;;;10.63;1.87;;;;;;;;;;4375676;32;317304;-86
2023/10/26 12:45:32;;;;;;;11.02;1.95;;;;;;;;;;4392086;32;318270;-86
2023/10/26 12:47:59;;;;;;;7.25;1.45;;;;;;;;;;4380443;32;318576;-87
2023/10/26 12:50:26;;;;;;;4.60;1.55;;;;;;;;;;4389955;32;317685;-88
2023/10/26 12:52:54;;;;;;;8.57;1.95;;;;;;;;;;4391191;32;322449;-91
2023/10/26 12:55:23;;;;;;;8.35;1.73;;;;;;;;;;4377420;32;416671;-89
2023/10/26 12:57:52;;;;;;;6.10;1.92;;;;;;;;;;4390753;32;316728;-89
2023/10/26 13:00:19;;;;;;;6.90;1.85;;;;;;;;;;4381075;32;317187;-90
2023/10/26 13:02:46;;;;;;;6.18;1.70;;;;;;;;;;4391808;32;316452;-91
2023/10/26 13:05:12;;;;;;;13.00;1.77;;;;;;;;;;4376051;32;317085;-90
2023/10/26 13:07:39;;;;;;;8.82;1.58;;;;;;;;;;4390766;32;317260;-89
2023/10/26 13:10:09;;;;;;;6.15;1.62;;;;;;;;;;4378834;32;317240;-90
2023/10/26 13:12:36;;;;;;;7.87;2.22;;;;;;;;;;4391434;32;316427;-91
2023/10/26 13:15:05;;;;;;;8.43;2.20;;;;;;;;;;4372561;32;354342;-90
2023/10/26 13:17:33;;;;;;;8.38;1.95;;;;;;;;;;4391416;32;317629;-90
2023/10/26 13:19:59;;;;;;;6.37;1.60;;;;;;;;;;4380792;32;317243;-90
2023/10/26 13:22:26;;;;;;;9.25;1.90;;;;;;;;;;4391855;32;315835;-89
2023/10/26 13:24:55;;;;;;;8.02;2.03;;;;;;;;;;4390735;32;317184;-86
2023/10/26 13:27:21;;;;;;;7.07;1.70;;;;;;;;;;4377465;32;414570;-85
2023/10/26 13:29:48;;;;;;;7.55;2.12;;;;;;;;;;4390509;32;317186;-89
2023/10/26 13:32:16;;;;;;;9.80;2.15;;;;;;;;;;4380398;32;317229;-88
2023/10/26 13:34:43;;;;;;;7.28;1.87;;;;;;;;;;4390954;32;317137;-90
2023/10/26 13:37:09;;;;;;;8.88;1.98;;;;;;;;;;4374180;32;317329;-85
2023/10/26 13:39:37;;;;;;;8.38;2.17;;;;;;;;;;4392050;32;317156;-86
2023/10/26 13:42:04;;;;;;;10.93;2.67;;;;;;;;;;4379453;32;328043;-86
2023/10/26 13:44:31;;;;;;;6.45;1.25;;;;;;;;;;4389574;32;333304;-88
2023/10/26 13:46:57;;;;;;;10.35;2.10;;;;;;;;;;4375200;32;316424;-91
2023/10/26 13:49:26;;;;;;;8.63;2.78;;;;;;;;;;4379956;32;317711;-88
2023/10/26 13:51:53;;;;;;;7.12;1.98;;;;;;;;;;4391673;32;316600;-86
2023/10/26 13:54:19;;;;;;;6.80;1.75;;;;;;;;;;4381075;32;316928;-86
2023/10/26 13:56:46;;;;;;;12.52;2.20;;;;;;;;;;4389600;32;317582;-86
2023/10/26 13:59:13;;;;;;;8.97;2.50;;;;;;;;;;4374744;32;317669;-87
2023/10/26 14:01:39;;;;;;;8.57;1.65;;;;;;;;;;4391057;32;316470;-86
2023/10/26 14:04:06;;;;;;;9.18;2.03;;;;;;;;;;4380704;32;317138;-90
2023/10/26 14:06:34;;;;;;;10.07;2.28;;;;;;;;;;4389346;32;316445;-90
2023/10/26 14:09:01;;;;;;;9.27;1.80;;;;;;;;;;4373732;32;318291;-89
2023/10/26 14:11:29;;;;;;;5.45;2.08;;;;;;;;;;4374838;32;316346;-88
2023/10/26 14:13:56;;;;;;;8.88;2.53;;;;;;;;;;4367837;32;317254;-90
2023/10/26 14:16:23;;;;;;;3.30;1.65;;;;;;;;;;4399611;32;316933;-88
2023/10/26 14:18:50;;;;;;;9.15;1.98;;;;;;;;;;4401503;32;316358;-89
2023/10/26 14:21:17;;;;;;;7.28;2.30;;;;;;;;;;4385620;32;316489;-89
2023/10/26 14:23:45;;;;;;;11.15;2.28;;;;;;;;;;4392353;32;316561;-90